Time,TemperatureF,DewpointF,PressureIn,WindDirection,WindDirectionDegrees,WindSpeedMPH,WindSpeedGustMPH,Humidity,HourlyPrecipIn,Conditions,Clouds,dailyrainin,SoftwareType,DateUTC
2013-07-26 00:43:00,75.0,-99.9,-100.00,West,261,5.0,9.0,-999,0.03,,,0.08,,2013-07-26 05:43:00,
2013-07-26 01:43:00,66.0,-99.9,-100.00,SE,142,2.0,5.0,-999,0.13,,,0.29,,2013-07-26 06:43:00,
2013-07-26 01:52:00,66.0,-99.9,-100.00,SE,142,2.0,5.0,-999,0.13,,,0.29,,2013-07-26 06:52:00,
2013-07-26 02:12:00,66.0,-99.9,-100.00,ESE,102,3.0,4.0,-999,0.19,,,-99.99,,2013-07-26 07:12:00,
2013-07-26 02:22:00,66.0,-99.9,-100.00,ESE,102,3.0,4.0,-999,0.19,,,-99.99,,2013-07-26 07:22:00,
2013-07-26 02:43:00,67.0,-99.9,-100.00,NNW,346,6.0,8.0,-999,0.20,,,0.49,,2013-07-26 07:43:00,
2013-07-26 02:53:00,67.0,-99.9,-100.00,NNW,346,6.0,8.0,-999,0.20,,,0.49,,2013-07-26 07:53:00,
2013-07-26 03:12:00,66.0,-99.9,-100.00,ESE,119,2.0,4.0,-999,0.19,,,0.54,,2013-07-26 08:12:00,
2013-07-26 03:22:00,66.0,-99.9,-100.00,ESE,119,2.0,4.0,-999,0.19,,,0.54,,2013-07-26 08:22:00,
2013-07-26 03:32:00,66.0,-99.9,-100.00,East,94,2.0,3.0,-999,0.09,,,0.58,,2013-07-26 08:32:00,
2013-07-26 03:44:00,66.0,-99.9,-100.00,East,94,2.0,3.0,-999,0.09,,,0.58,,2013-07-26 08:44:00,
2013-07-26 03:52:00,66.0,-99.9,-100.00,East,94,2.0,3.0,-999,0.09,,,0.58,,2013-07-26 08:52:00,
2013-07-26 04:12:00,66.0,-99.9,-100.00,ESE,105,2.0,3.0,-999,0.07,,,0.61,,2013-07-26 09:12:00,
2013-07-26 04:22:00,66.0,-99.9,-100.00,ESE,105,2.0,3.0,-999,0.07,,,0.61,,2013-07-26 09:22:00,
2013-07-26 04:43:00,66.0,-99.9,-100.00,SSE,163,0.0,0.0,-999,0.06,,,0.64,,2013-07-26 09:43:00,
2013-07-26 04:52:00,66.0,-99.9,-100.00,SSE,163,0.0,0.0,-999,0.06,,,0.64,,2013-07-26 09:52:00,
2013-07-26 05:12:00,65.0,-99.9,-100.00,SW,221,0.0,0.0,-999,0.04,,,-99.99,,2013-07-26 10:12:00,
2013-07-26 05:22:00,65.0,-99.9,-100.00,SW,221,0.0,0.0,-999,0.04,,,-99.99,,2013-07-26 10:22:00,
2013-07-26 05:33:00,65.0,-99.9,-100.00,SSE,152,0.0,1.0,-999,0.06,,,0.70,,2013-07-26 10:33:00,
2013-07-26 05:43:00,65.0,-99.9,-100.00,SSE,152,0.0,1.0,-999,0.06,,,0.70,,2013-07-26 10:43:00,
2013-07-26 05:53:00,65.0,-99.9,-100.00,SSE,152,0.0,1.0,-999,0.06,,,0.70,,2013-07-26 10:53:00,
2013-07-26 06:12:00,65.0,-99.9,-100.00,SSE,167,3.0,4.0,-999,0.09,,,0.74,,2013-07-26 11:12:00,
2013-07-26 06:22:00,65.0,-99.9,-100.00,SSE,167,3.0,4.0,-999,0.09,,,0.74,,2013-07-26 11:22:00,
2013-07-26 06:32:00,65.0,-99.9,-100.00,South,172,1.0,2.0,-999,0.05,,,0.75,,2013-07-26 11:32:00,
2013-07-26 06:43:00,65.0,-99.9,-100.00,South,172,1.0,2.0,-999,0.05,,,0.75,,2013-07-26 11:43:00,
2013-07-26 06:52:00,65.0,-99.9,-100.00,South,172,1.0,2.0,-999,0.05,,,0.75,,2013-07-26 11:52:00,
2013-07-26 07:02:00,65.0,-99.9,-100.00,SSW,198,0.0,0.0,-999,0.01,,,0.75,,2013-07-26 12:02:00,
2013-07-26 07:12:00,65.0,-99.9,-100.00,SSW,198,0.0,0.0,-999,0.01,,,0.75,,2013-07-26 12:12:00,
2013-07-26 07:22:00,65.0,-99.9,-100.00,SSW,198,0.0,0.0,-999,0.01,,,0.75,,2013-07-26 12:22:00,
2013-07-26 07:43:00,66.0,-99.9,-100.00,South,171,0.0,0.0,-999,0.00,,,0.75,,2013-07-26 12:43:00,
2013-07-26 07:53:00,66.0,-99.9,-100.00,South,171,0.0,0.0,-999,0.00,,,0.75,,2013-07-26 12:53:00,
2013-07-26 08:12:00,66.0,-99.9,-100.00,SSW,194,1.0,2.0,-999,0.00,,,-99.99,,2013-07-26 13:12:00,
2013-07-26 08:23:00,66.0,-99.9,-100.00,SSW,194,1.0,2.0,-999,0.00,,,-99.99,,2013-07-26 13:23:00,
2013-07-26 08:30:00,67.0,-99.9,-100.00,South,179,2.0,5.0,-999,0.01,,,0.76,,2013-07-26 13:30:00,
2013-07-26 08:43:00,66.0,-99.9,-100.00,South,177,2.0,3.0,-999,0.01,,,0.76,,2013-07-26 13:43:00,
2013-07-26 08:53:00,66.0,-99.9,-100.00,South,177,2.0,3.0,-999,0.01,,,0.76,,2013-07-26 13:53:00,
2013-07-26 09:12:00,67.0,-99.9,-100.00,South,179,2.0,5.0,-999,0.01,,,0.76,,2013-07-26 14:12:00,
2013-07-26 09:22:00,67.0,-99.9,-100.00,South,179,2.0,5.0,-999,0.01,,,0.76,,2013-07-26 14:22:00,
2013-07-26 10:12:00,68.0,-99.9,-100.00,South,175,1.0,2.0,-999,0.00,,,0.76,,2013-07-26 15:12:00,
2013-07-26 10:22:00,68.0,-99.9,-100.00,South,175,1.0,2.0,-999,0.00,,,0.76,,2013-07-26 15:22:00,
2013-07-26 10:43:00,69.0,-99.9,-100.00,South,187,1.0,1.0,-999,0.00,,,0.76,,2013-07-26 15:43:00,
2013-07-26 10:53:00,69.0,-99.9,-100.00,South,187,1.0,1.0,-999,0.00,,,0.76,,2013-07-26 15:53:00,
2013-07-26 11:15:00,70.0,-99.9,-100.00,South,185,1.0,3.0,-999,0.00,,,0.76,,2013-07-26 16:15:00,
2013-07-26 11:22:00,70.0,-99.9,-100.00,South,185,1.0,3.0,-999,0.00,,,0.76,,2013-07-26 16:22:00,
2013-07-26 11:32:00,71.0,-99.9,-100.00,SSW,195,0.0,1.0,-999,0.00,,,0.76,,2013-07-26 16:32:00,
2013-07-26 11:43:00,71.0,-99.9,-100.00,SSW,195,0.0,1.0,-999,0.00,,,0.76,,2013-07-26 16:43:00,
2013-07-26 11:54:00,71.0,-99.9,-100.00,SSW,195,0.0,1.0,-999,0.00,,,0.76,,2013-07-26 16:54:00,
2013-07-26 12:03:00,72.0,-99.9,-100.00,SSW,213,0.0,0.0,-999,0.00,,,0.76,,2013-07-26 17:03:00,
2013-07-26 12:12:00,72.0,-99.9,-100.00,SSW,213,0.0,0.0,-999,0.00,,,0.76,,2013-07-26 17:12:00,
2013-07-26 12:23:00,72.0,-99.9,-100.00,SSW,213,0.0,0.0,-999,0.00,,,0.76,,2013-07-26 17:23:00,
2013-07-26 12:43:00,73.0,-99.9,-100.00,SW,216,0.0,0.0,-999,0.00,,,0.76,,2013-07-26 17:43:00,
2013-07-26 12:53:00,73.0,-99.9,-100.00,SW,216,0.0,0.0,-999,0.00,,,0.76,,2013-07-26 17:53:00,
2013-07-26 13:12:00,80.0,-99.9,-100.00,SW,236,0.0,2.0,-999,0.00,,,0.76,,2013-07-26 18:12:00,
2013-07-26 13:23:00,80.0,-99.9,-100.00,SW,236,0.0,2.0,-999,0.00,,,0.76,,2013-07-26 18:23:00,
2013-07-26 13:44:00,82.0,-99.9,-100.00,WSW,242,2.0,5.0,-999,0.00,,,0.76,,2013-07-26 18:44:00,
2013-07-26 13:53:00,82.0,-99.9,-100.00,WSW,242,2.0,5.0,-999,0.00,,,0.76,,2013-07-26 18:53:00,
2013-07-26 14:13:00,79.0,-99.9,-100.00,South,177,0.0,2.0,-999,0.00,,,0.76,,2013-07-26 19:13:00,
2013-07-26 14:23:00,79.0,-99.9,-100.00,South,177,0.0,2.0,-999,0.00,,,0.76,,2013-07-26 19:23:00,
2013-07-26 14:43:00,80.0,-99.9,-100.00,WSW,250,0.0,2.0,-999,0.00,,,0.76,,2013-07-26 19:43:00,
2013-07-26 14:53:00,80.0,-99.9,-100.00,WSW,250,0.0,2.0,-999,0.00,,,0.76,,2013-07-26 19:53:00,
2013-07-26 15:12:00,80.0,-99.9,-100.00,WSW,245,1.0,6.0,-999,0.00,,,0.76,,2013-07-26 20:12:00,
2013-07-26 15:22:00,80.0,-99.9,-100.00,WSW,245,1.0,6.0,-999,0.00,,,0.76,,2013-07-26 20:22:00,
2013-07-26 16:12:00,78.0,-99.9,-100.00,WNW,283,9.0,15.0,-999,0.13,,,0.89,,2013-07-26 21:12:00,
2013-07-26 16:22:00,78.0,-99.9,-100.00,WNW,283,9.0,15.0,-999,0.13,,,0.89,,2013-07-26 21:22:00,
2013-07-26 16:43:00,78.0,-99.9,-100.00,West,279,13.0,19.0,-999,0.00,,,0.89,,2013-07-26 21:43:00,
2013-07-26 16:53:00,78.0,-99.9,-100.00,West,279,13.0,19.0,-999,0.00,,,0.89,,2013-07-26 21:53:00,
2013-07-26 17:12:00,77.0,-99.9,-100.00,WNW,289,13.0,22.0,-999,0.00,,,0.89,,2013-07-26 22:12:00,
2013-07-26 17:22:00,77.0,-99.9,-100.00,WNW,289,13.0,22.0,-999,0.00,,,0.89,,2013-07-26 22:22:00,
2013-07-26 17:33:00,77.0,-99.9,-100.00,West,278,12.0,21.0,-999,0.00,,,0.89,,2013-07-26 22:33:00,
2013-07-26 17:43:00,77.0,-99.9,-100.00,West,278,12.0,21.0,-999,0.00,,,0.89,,2013-07-26 22:43:00,
2013-07-26 17:53:00,77.0,-99.9,-100.00,West,278,12.0,21.0,-999,0.00,,,0.89,,2013-07-26 22:53:00,
2013-07-26 18:02:00,76.0,-99.9,-100.00,WNW,293,9.0,15.0,-999,0.00,,,0.89,,2013-07-26 23:02:00,
2013-07-26 18:12:00,76.0,-99.9,-100.00,WNW,293,9.0,15.0,-999,0.00,,,0.89,,2013-07-26 23:12:00,
2013-07-26 18:22:00,76.0,-99.9,-100.00,WNW,293,9.0,15.0,-999,0.00,,,0.89,,2013-07-26 23:22:00,
2013-07-26 18:43:00,75.0,-99.9,-100.00,WNW,298,11.0,18.0,-999,0.00,,,0.89,,2013-07-26 23:43:00,
2013-07-26 18:53:00,75.0,-99.9,-100.00,WNW,298,11.0,18.0,-999,0.00,,,0.89,,2013-07-26 23:53:00,
2013-07-26 19:02:00,74.0,-99.9,-100.00,WNW,289,10.0,17.0,-999,0.00,,,0.89,,2013-07-27 00:02:00,
2013-07-26 19:12:00,74.0,-99.9,-100.00,WNW,289,10.0,17.0,-999,0.00,,,0.89,,2013-07-27 00:12:00,
2013-07-26 19:22:00,74.0,-99.9,-100.00,WNW,289,10.0,17.0,-999,0.00,,,0.89,,2013-07-27 00:22:00,
2013-07-26 19:43:00,73.0,-99.9,-100.00,WNW,293,10.0,16.0,-999,0.00,,,0.89,,2013-07-27 00:43:00,
2013-07-26 19:53:00,73.0,-99.9,-100.00,WNW,293,10.0,16.0,-999,0.00,,,0.89,,2013-07-27 00:53:00,
2013-07-26 20:12:00,72.0,-99.9,-100.00,WNW,292,8.0,12.0,-999,0.00,,,0.89,,2013-07-27 01:12:00,
2013-07-26 20:22:00,72.0,-99.9,-100.00,WNW,292,8.0,12.0,-999,0.00,,,0.89,,2013-07-27 01:22:00,
2013-07-26 20:33:00,71.0,-99.9,-100.00,NW,314,5.0,7.0,-999,0.00,,,0.89,,2013-07-27 01:33:00,
2013-07-26 20:44:00,71.0,-99.9,-100.00,NW,314,5.0,7.0,-999,0.00,,,0.89,,2013-07-27 01:44:00,
2013-07-26 20:53:00,71.0,-99.9,-100.00,NW,314,5.0,7.0,-999,0.00,,,0.89,,2013-07-27 01:53:00,
2013-07-26 21:02:00,70.0,-99.9,-100.00,WNW,288,4.0,6.0,-999,0.00,,,0.89,,2013-07-27 02:02:00,
2013-07-26 21:12:00,70.0,-99.9,-100.00,WNW,288,4.0,6.0,-999,0.00,,,0.89,,2013-07-27 02:12:00,
2013-07-26 21:23:00,70.0,-99.9,-100.00,WNW,288,4.0,6.0,-999,0.00,,,0.89,,2013-07-27 02:23:00,
2013-07-26 21:43:00,69.0,-99.9,-100.00,West,263,4.0,6.0,-999,0.00,,,0.89,,2013-07-27 02:43:00,
2013-07-26 21:53:00,69.0,-99.9,-100.00,West,263,4.0,6.0,-999,0.00,,,0.89,,2013-07-27 02:53:00,
2013-07-26 22:03:00,69.0,-99.9,-100.00,West,260,4.0,7.0,-999,0.00,,,0.89,,2013-07-27 03:03:00,
2013-07-26 22:12:00,69.0,-99.9,-100.00,West,260,4.0,7.0,-999,0.00,,,0.89,,2013-07-27 03:12:00,
2013-07-26 22:22:00,69.0,-99.9,-100.00,West,260,4.0,7.0,-999,0.00,,,0.89,,2013-07-27 03:22:00,
2013-07-26 22:33:00,68.0,-99.9,-100.00,West,272,3.0,5.0,-999,0.00,,,0.89,,2013-07-27 03:33:00,
2013-07-26 22:44:00,68.0,-99.9,-100.00,West,272,3.0,5.0,-999,0.00,,,0.89,,2013-07-27 03:44:00,
2013-07-26 22:52:00,68.0,-99.9,-100.00,West,272,3.0,5.0,-999,0.00,,,0.89,,2013-07-27 03:52:00,
2013-07-26 23:02:00,67.0,-99.9,-100.00,WSW,257,3.0,6.0,-999,0.00,,,0.89,,2013-07-27 04:02:00,
2013-07-26 23:12:00,67.0,-99.9,-100.00,WSW,257,3.0,6.0,-999,0.00,,,0.89,,2013-07-27 04:12:00,
2013-07-26 23:22:00,67.0,-99.9,-100.00,WSW,257,3.0,6.0,-999,0.00,,,0.89,,2013-07-27 04:22:00,
2013-07-26 23:33:00,67.0,-99.9,-100.00,West,272,4.0,7.0,-999,0.00,,,0.84,,2013-07-27 04:33:00,
2013-07-26 23:43:00,67.0,-99.9,-100.00,West,272,4.0,7.0,-999,0.00,,,0.84,,2013-07-27 04:43:00,
2013-07-26 23:53:00,67.0,-99.9,-100.00,West,272,4.0,7.0,-999,0.00,,,0.84,,2013-07-27 04:53:00,